Turley, New Mexico
Current Conditions -  °F | °C
As of 4:53 PM on Friday 31 Oct 2014 (Local Time) from KFMN Reporting Station
Clear Clear  
Wind Chill: 71°   Ceiling: Unl
Heat Index: 71°   Visibility: 10mi
Dew Point: 28°   Wind: 14mph
Humidity: 20%   Direction: 90°E
Pressure: 30.11"   Gusts: NA
Location:  36.6079°N, 107.734°W
Report Text: KFMN 312253Z 09012KT 10SM CLR 22/M02 A3011 RMK AO2 SLP162 T02171022
Loading
Personal Weather Stations






























Interactive Weather Map
Tropical Storm Tracking
New forecast layout! Learn more

10-Day Weather Forecast

Advertisements
Track Severe Weather on mobile